sensor_id;sensor_type;location;lat;lon;timestamp;pressure;altitude;pressure_sealevel;temperature;humidity
58072;BME280;60383;46.626;18.866;2024-01-07T00:01:28;98872.16;;;6.88;100.00
58072;BME280;60383;46.626;18.866;2024-01-07T00:03:53;98869.25;;;6.90;100.00
58072;BME280;60383;46.626;18.866;2024-01-07T00:06:19;98872.84;;;6.91;100.00
58072;BME280;60383;46.626;18.866;2024-01-07T00:08:44;98882.19;;;6.96;100.00
58072;BME280;60383;46.626;18.866;2024-01-07T00:11:10;98884.22;;;6.94;100.00
58072;BME280;60383;46.626;18.866;2024-01-07T00:13:35;98875.22;;;6.85;100.00
58072;BME280;60383;46.626;18.866;2024-01-07T00:16:01;98881.50;;;6.86;100.00
58072;BME280;60383;46.626;18.866;2024-01-07T00:18:26;98891.03;;;6.82;100.00
58072;BME280;60383;46.626;18.866;2024-01-07T00:20:53;98886.63;;;6.89;100.00
58072;BME280;60383;46.626;18.866;2024-01-07T00:23:18;98882.34;;;6.95;100.00
58072;BME280;60383;46.626;18.866;2024-01-07T00:25:46;98887.78;;;6.95;100.00
58072;BME280;60383;46.626;18.866;2024-01-07T00:28:12;98880.81;;;7.09;100.00
58072;BME280;60383;46.626;18.866;2024-01-07T00:30:37;98879.59;;;7.11;100.00
58072;BME280;60383;46.626;18.866;2024-01-07T00:33:03;98879.09;;;7.16;100.00
58072;BME280;60383;46.626;18.866;2024-01-07T00:35:28;98892.91;;;7.06;100.00
58072;BME280;60383;46.626;18.866;2024-01-07T00:37:54;98888.28;;;7.07;100.00
58072;BME280;60383;46.626;18.866;2024-01-07T00:40:24;98887.63;;;6.96;100.00
58072;BME280;60383;46.626;18.866;2024-01-07T00:42:50;98876.06;;;6.86;100.00
58072;BME280;60383;46.626;18.866;2024-01-07T00:45:16;98879.47;;;6.80;100.00
58072;BME280;60383;46.626;18.866;2024-01-07T00:47:42;98883.22;;;6.79;100.00
58072;BME280;60383;46.626;18.866;2024-01-07T00:50:08;98869.78;;;6.69;100.00
58072;BME280;60383;46.626;18.866;2024-01-07T00:52:33;98871.16;;;6.65;100.00
58072;BME280;60383;46.626;18.866;2024-01-07T00:54:59;98866.72;;;6.64;100.00
58072;BME280;60383;46.626;18.866;2024-01-07T00:57:25;98862.13;;;6.72;100.00
58072;BME280;60383;46.626;18.866;2024-01-07T00:59:51;98862.31;;;6.71;100.00
58072;BME280;60383;46.626;18.866;2024-01-07T01:02:16;98867.75;;;6.63;100.00
58072;BME280;60383;46.626;18.866;2024-01-07T01:04:41;98873.34;;;6.69;100.00
58072;BME280;60383;46.626;18.866;2024-01-07T01:07:07;98876.44;;;6.83;100.00
58072;BME280;60383;46.626;18.866;2024-01-07T01:09:33;98883.72;;;6.74;100.00
58072;BME280;60383;46.626;18.866;2024-01-07T01:11:59;98879.28;;;6.73;100.00
58072;BME280;60383;46.626;18.866;2024-01-07T01:14:24;98878.13;;;6.76;100.00
58072;BME280;60383;46.626;18.866;2024-01-07T01:16:50;98879.16;;;6.83;100.00
58072;BME280;60383;46.626;18.866;2024-01-07T01:19:15;98876.25;;;6.76;100.00
58072;BME280;60383;46.626;18.866;2024-01-07T01:21:41;98871.47;;;6.95;100.00
58072;BME280;60383;46.626;18.866;2024-01-07T01:24:06;98870.94;;;6.91;100.00
58072;BME280;60383;46.626;18.866;2024-01-07T01:26:32;98870.63;;;6.78;100.00
58072;BME280;60383;46.626;18.866;2024-01-07T01:28:57;98858.41;;;6.82;100.00
58072;BME280;60383;46.626;18.866;2024-01-07T01:31:23;98859.09;;;6.76;100.00
58072;BME280;60383;46.626;18.866;2024-01-07T01:33:48;98857.88;;;6.70;100.00
58072;BME280;60383;46.626;18.866;2024-01-07T01:36:14;98857.53;;;6.73;100.00
58072;BME280;60383;46.626;18.866;2024-01-07T01:38:39;98854.97;;;6.71;100.00
58072;BME280;60383;46.626;18.866;2024-01-07T01:41:05;98850.91;;;6.59;100.00
58072;BME280;60383;46.626;18.866;2024-01-07T01:43:30;98847.69;;;6.55;100.00
58072;BME280;60383;46.626;18.866;2024-01-07T01:45:56;98852.28;;;6.55;100.00
58072;BME280;60383;46.626;18.866;2024-01-07T01:48:26;98852.94;;;6.57;100.00
58072;BME280;60383;46.626;18.866;2024-01-07T01:50:52;98851.78;;;6.51;100.00
58072;BME280;60383;46.626;18.866;2024-01-07T01:53:19;98859.41;;;6.56;100.00
58072;BME280;60383;46.626;18.866;2024-01-07T01:55:45;98848.53;;;6.48;100.00
58072;BME280;60383;46.626;18.866;2024-01-07T01:58:13;98856.84;;;6.46;100.00
58072;BME280;60383;46.626;18.866;2024-01-07T02:00:39;98853.81;;;6.41;100.00
58072;BME280;60383;46.626;18.866;2024-01-07T02:03:05;98850.91;;;6.34;100.00
58072;BME280;60383;46.626;18.866;2024-01-07T02:05:30;98861.09;;;6.32;100.00
58072;BME280;60383;46.626;18.866;2024-01-07T02:07:56;98852.94;;;6.32;100.00
58072;BME280;60383;46.626;18.866;2024-01-07T02:10:22;98854.50;;;6.43;100.00
58072;BME280;60383;46.626;18.866;2024-01-07T02:12:48;98845.31;;;6.44;100.00
58072;BME280;60383;46.626;18.866;2024-01-07T02:15:14;98848.72;;;6.38;100.00
58072;BME280;60383;46.626;18.866;2024-01-07T02:17:40;98852.47;;;6.45;100.00
58072;BME280;60383;46.626;18.866;2024-01-07T02:20:06;98843.25;;;6.46;100.00
58072;BME280;60383;46.626;18.866;2024-01-07T02:22:31;98842.56;;;6.61;100.00
58072;BME280;60383;46.626;18.866;2024-01-07T02:24:57;98840.56;;;6.38;100.00
58072;BME280;60383;46.626;18.866;2024-01-07T02:27:22;98828.81;;;6.29;100.00
58072;BME280;60383;46.626;18.866;2024-01-07T02:29:48;98836.97;;;6.21;100.00
58072;BME280;60383;46.626;18.866;2024-01-07T02:32:13;98833.22;;;6.14;100.00
58072;BME280;60383;46.626;18.866;2024-01-07T02:34:39;98832.34;;;6.13;100.00
58072;BME280;60383;46.626;18.866;2024-01-07T02:37:04;98836.25;;;6.11;100.00
58072;BME280;60383;46.626;18.866;2024-01-07T02:39:29;98833.72;;;6.09;100.00
58072;BME280;60383;46.626;18.866;2024-01-07T02:41:55;98832.03;;;6.16;100.00
58072;BME280;60383;46.626;18.866;2024-01-07T02:44:20;98833.22;;;6.22;100.00
58072;BME280;60383;46.626;18.866;2024-01-07T02:46:46;98824.22;;;6.21;100.00
58072;BME280;60383;46.626;18.866;2024-01-07T02:49:12;98828.63;;;6.14;100.00
58072;BME280;60383;46.626;18.866;2024-01-07T02:51:38;98822.50;;;6.04;100.00
58072;BME280;60383;46.626;18.866;2024-01-07T02:54:03;98822.84;;;6.01;100.00
58072;BME280;60383;46.626;18.866;2024-01-07T02:56:29;98821.81;;;6.02;100.00
58072;BME280;60383;46.626;18.866;2024-01-07T02:58:54;98813.84;;;6.00;100.00
58072;BME280;60383;46.626;18.866;2024-01-07T03:01:22;98809.25;;;6.01;100.00
58072;BME280;60383;46.626;18.866;2024-01-07T03:03:50;98812.78;;;5.93;100.00
58072;BME280;60383;46.626;18.866;2024-01-07T03:06:16;98806.81;;;5.89;100.00
58072;BME280;60383;46.626;18.866;2024-01-07T03:08:42;98815.81;;;5.90;100.00
58072;BME280;60383;46.626;18.866;2024-01-07T03:11:08;98816.00;;;5.97;100.00
58072;BME280;60383;46.626;18.866;2024-01-07T03:13:33;98800.78;;;6.04;100.00
58072;BME280;60383;46.626;18.866;2024-01-07T03:15:59;98805.63;;;5.92;100.00
58072;BME280;60383;46.626;18.866;2024-01-07T03:18:24;98808.34;;;5.92;100.00
58072;BME280;60383;46.626;18.866;2024-01-07T03:20:50;98810.56;;;5.88;100.00
58072;BME280;60383;46.626;18.866;2024-01-07T03:23:15;98812.59;;;5.95;100.00
58072;BME280;60383;46.626;18.866;2024-01-07T03:25:41;98807.38;;;6.01;100.00
58072;BME280;60383;46.626;18.866;2024-01-07T03:28:06;98812.59;;;5.95;100.00
58072;BME280;60383;46.626;18.866;2024-01-07T03:30:32;98814.69;;;6.01;100.00
58072;BME280;60383;46.626;18.866;2024-01-07T03:32:57;98815.16;;;5.96;100.00
58072;BME280;60383;46.626;18.866;2024-01-07T03:35:22;98808.19;;;5.94;100.00
58072;BME280;60383;46.626;18.866;2024-01-07T03:37:49;98818.41;;;6.00;100.00
58072;BME280;60383;46.626;18.866;2024-01-07T03:40:15;98815.84;;;5.98;100.00
58072;BME280;60383;46.626;18.866;2024-01-07T03:42:40;98817.34;;;5.92;100.00
58072;BME280;60383;46.626;18.866;2024-01-07T03:45:06;98824.81;;;5.90;100.00
58072;BME280;60383;46.626;18.866;2024-01-07T03:47:31;98826.75;;;6.06;100.00
58072;BME280;60383;46.626;18.866;2024-01-07T03:49:57;98832.88;;;6.00;100.00
58072;BME280;60383;46.626;18.866;2024-01-07T03:52:22;98834.75;;;6.08;100.00
58072;BME280;60383;46.626;18.866;2024-01-07T03:54:48;98829.13;;;6.18;100.00
58072;BME280;60383;46.626;18.866;2024-01-07T03:57:13;98829.81;;;6.28;100.00
58072;BME280;60383;46.626;18.866;2024-01-07T03:59:39;98837.47;;;6.16;100.00
58072;BME280;60383;46.626;18.866;2024-01-07T04:02:04;98836.81;;;6.31;100.00
58072;BME280;60383;46.626;18.866;2024-01-07T04:04:30;98836.44;;;6.26;100.00
58072;BME280;60383;46.626;18.866;2024-01-07T04:06:56;98830.66;;;6.12;100.00
58072;BME280;60383;46.626;18.866;2024-01-07T04:09:22;98830.50;;;6.22;100.00
58072;BME280;60383;46.626;18.866;2024-01-07T04:11:47;98834.75;;;6.16;100.00
58072;BME280;60383;46.626;18.866;2024-01-07T04:14:15;98837.63;;;6.15;100.00
58072;BME280;60383;46.626;18.866;2024-01-07T04:16:41;98838.28;;;6.08;100.00
58072;BME280;60383;46.626;18.866;2024-01-07T04:19:06;98836.09;;;6.04;100.00
58072;BME280;60383;46.626;18.866;2024-01-07T04:21:32;98845.91;;;5.97;100.00
58072;BME280;60383;46.626;18.866;2024-01-07T04:23:57;98841.63;;;5.94;100.00
58072;BME280;60383;46.626;18.866;2024-01-07T04:26:23;98842.66;;;5.93;100.00
58072;BME280;60383;46.626;18.866;2024-01-07T04:28:48;98836.19;;;5.94;100.00
58072;BME280;60383;46.626;18.866;2024-01-07T04:31:14;98838.25;;;5.92;100.00
58072;BME280;60383;46.626;18.866;2024-01-07T04:33:39;98838.91;;;5.86;100.00
58072;BME280;60383;46.626;18.866;2024-01-07T04:36:05;98834.81;;;5.82;100.00
58072;BME280;60383;46.626;18.866;2024-01-07T04:38:31;98837.91;;;5.87;100.00
58072;BME280;60383;46.626;18.866;2024-01-07T04:40:56;98835.50;;;5.84;100.00
58072;BME280;60383;46.626;18.866;2024-01-07T04:43:21;98838.53;;;5.81;100.00
58072;BME280;60383;46.626;18.866;2024-01-07T04:45:47;98846.16;;;5.77;100.00
58072;BME280;60383;46.626;18.866;2024-01-07T04:48:13;98841.31;;;5.97;100.00
58072;BME280;60383;46.626;18.866;2024-01-07T04:50:41;98844.00;;;5.89;100.00
58072;BME280;60383;46.626;18.866;2024-01-07T04:53:08;98841.78;;;5.84;100.00
58072;BME280;60383;46.626;18.866;2024-01-07T04:55:33;98839.97;;;5.93;100.00
58072;BME280;60383;46.626;18.866;2024-01-07T04:57:59;98846.72;;;5.89;100.00
58072;BME280;60383;46.626;18.866;2024-01-07T05:00:25;98852.66;;;5.84;100.00
58072;BME280;60383;46.626;18.866;2024-01-07T05:02:50;98850.59;;;5.78;100.00
58072;BME280;60383;46.626;18.866;2024-01-07T05:05:16;98846.69;;;5.81;100.00
58072;BME280;60383;46.626;18.866;2024-01-07T05:07:41;98845.00;;;5.80;100.00
58072;BME280;60383;46.626;18.866;2024-01-07T05:10:07;98838.03;;;5.77;100.00
58072;BME280;60383;46.626;18.866;2024-01-07T05:12:33;98837.19;;;5.76;100.00
58072;BME280;60383;46.626;18.866;2024-01-07T05:14:58;98840.59;;;5.79;100.00
58072;BME280;60383;46.626;18.866;2024-01-07T05:17:23;98843.81;;;5.74;100.00
58072;BME280;60383;46.626;18.866;2024-01-07T05:19:49;98833.81;;;5.83;100.00
58072;BME280;60383;46.626;18.866;2024-01-07T05:22:14;98841.59;;;5.78;100.00
58072;BME280;60383;46.626;18.866;2024-01-07T05:24:40;98835.97;;;5.71;100.00
58072;BME280;60383;46.626;18.866;2024-01-07T05:27:05;98839.06;;;5.76;100.00
58072;BME280;60383;46.626;18.866;2024-01-07T05:29:31;98835.81;;;5.81;100.00
58072;BME280;60383;46.626;18.866;2024-01-07T05:31:59;98843.13;;;5.80;100.00
58072;BME280;60383;46.626;18.866;2024-01-07T05:34:26;98846.34;;;5.75;100.00
58072;BME280;60383;46.626;18.866;2024-01-07T05:36:51;98847.47;;;6.07;100.00
58072;BME280;60383;46.626;18.866;2024-01-07T05:39:17;98847.66;;;6.14;100.00
58072;BME280;60383;46.626;18.866;2024-01-07T05:41:42;98841.56;;;6.29;100.00
58072;BME280;60383;46.626;18.866;2024-01-07T05:44:08;98842.25;;;6.22;100.00
58072;BME280;60383;46.626;18.866;2024-01-07T05:46:34;98834.53;;;6.01;100.00
58072;BME280;60383;46.626;18.866;2024-01-07T05:48:59;98847.25;;;5.92;100.00
58072;BME280;60383;46.626;18.866;2024-01-07T05:51:25;98851.97;;;5.90;100.00
58072;BME280;60383;46.626;18.866;2024-01-07T05:53:50;98844.50;;;5.84;100.00
58072;BME280;60383;46.626;18.866;2024-01-07T05:56:16;98851.84;;;5.92;100.00
58072;BME280;60383;46.626;18.866;2024-01-07T05:58:41;98853.50;;;5.85;100.00
58072;BME280;60383;46.626;18.866;2024-01-07T06:01:07;98858.28;;;5.91;100.00
58072;BME280;60383;46.626;18.866;2024-01-07T06:03:33;98854.88;;;5.89;100.00
58072;BME280;60383;46.626;18.866;2024-01-07T06:05:59;98859.97;;;5.84;100.00
58072;BME280;60383;46.626;18.866;2024-01-07T06:08:26;98866.41;;;5.83;100.00
58072;BME280;60383;46.626;18.866;2024-01-07T06:10:51;98874.75;;;5.98;100.00
58072;BME280;60383;46.626;18.866;2024-01-07T06:13:16;98877.81;;;5.95;100.00
58072;BME280;60383;46.626;18.866;2024-01-07T06:15:42;98873.72;;;5.90;100.00
58072;BME280;60383;46.626;18.866;2024-01-07T06:18:07;98871.94;;;5.99;100.00
58072;BME280;60383;46.626;18.866;2024-01-07T06:20:33;98875.28;;;5.93;100.00
58072;BME280;60383;46.626;18.866;2024-01-07T06:22:58;98873.41;;;5.94;100.00
58072;BME280;60383;46.626;18.866;2024-01-07T06:25:24;98877.47;;;5.98;100.00
58072;BME280;60383;46.626;18.866;2024-01-07T06:27:51;98882.25;;;5.96;100.00
58072;BME280;60383;46.626;18.866;2024-01-07T06:30:17;98884.50;;;6.00;100.00
58072;BME280;60383;46.626;18.866;2024-01-07T06:32:44;98886.34;;;6.00;100.00
58072;BME280;60383;46.626;18.866;2024-01-07T06:35:10;98890.94;;;5.99;100.00
58072;BME280;60383;46.626;18.866;2024-01-07T06:37:36;98886.34;;;6.00;100.00
58072;BME280;60383;46.626;18.866;2024-01-07T06:40:01;98886.50;;;5.98;100.00
58072;BME280;60383;46.626;18.866;2024-01-07T06:42:27;98888.22;;;6.07;100.00
58072;BME280;60383;46.626;18.866;2024-01-07T06:44:53;98895.53;;;6.07;100.00
58072;BME280;60383;46.626;18.866;2024-01-07T06:47:18;98893.84;;;6.06;100.00
58072;BME280;60383;46.626;18.866;2024-01-07T06:49:44;98886.69;;;6.05;100.00
58072;BME280;60383;46.626;18.866;2024-01-07T06:52:10;98890.59;;;6.02;100.00
58072;BME280;60383;46.626;18.866;2024-01-07T06:54:36;98896.50;;;5.98;100.00
58072;BME280;60383;46.626;18.866;2024-01-07T06:57:01;98887.69;;;5.96;100.00
58072;BME280;60383;46.626;18.866;2024-01-07T06:59:27;98888.22;;;5.99;100.00
58072;BME280;60383;46.626;18.866;2024-01-07T07:01:53;98891.06;;;5.98;100.00
58072;BME280;60383;46.626;18.866;2024-01-07T07:04:20;98894.13;;;5.95;100.00
58072;BME280;60383;46.626;18.866;2024-01-07T07:06:46;98894.97;;;5.95;100.00
58072;BME280;60383;46.626;18.866;2024-01-07T07:09:11;98899.38;;;5.96;100.00
58072;BME280;60383;46.626;18.866;2024-01-07T07:11:38;98904.38;;;6.01;100.00
58072;BME280;60383;46.626;18.866;2024-01-07T07:14:03;98895.84;;;5.96;100.00
58072;BME280;60383;46.626;18.866;2024-01-07T07:16:29;98902.28;;;5.95;100.00
58072;BME280;60383;46.626;18.866;2024-01-07T07:18:54;98903.00;;;6.05;100.00
58072;BME280;60383;46.626;18.866;2024-01-07T07:21:19;98902.16;;;6.04;100.00
58072;BME280;60383;46.626;18.866;2024-01-07T07:23:45;98899.47;;;6.13;100.00
58072;BME280;60383;46.626;18.866;2024-01-07T07:26:10;98897.94;;;6.10;100.00
58072;BME280;60383;46.626;18.866;2024-01-07T07:28:36;98898.63;;;6.20;100.00
58072;BME280;60383;46.626;18.866;2024-01-07T07:31:02;98896.06;;;6.11;100.00
58072;BME280;60383;46.626;18.866;2024-01-07T07:33:27;98901.50;;;6.11;100.00
58072;BME280;60383;46.626;18.866;2024-01-07T07:35:53;98903.38;;;6.10;100.00
58072;BME280;60383;46.626;18.866;2024-01-07T07:38:18;98900.81;;;6.08;100.00
58072;BME280;60383;46.626;18.866;2024-01-07T07:40:44;98907.94;;;6.10;100.00
58072;BME280;60383;46.626;18.866;2024-01-07T07:43:12;98916.47;;;6.23;100.00
58072;BME280;60383;46.626;18.866;2024-01-07T07:45:37;98912.19;;;6.12;100.00
58072;BME280;60383;46.626;18.866;2024-01-07T07:48:03;98919.88;;;6.25;100.00
58072;BME280;60383;46.626;18.866;2024-01-07T07:50:29;98918.84;;;6.18;100.00
58072;BME280;60383;46.626;18.866;2024-01-07T07:52:54;98925.31;;;6.17;100.00
58072;BME280;60383;46.626;18.866;2024-01-07T07:55:20;98926.97;;;6.10;100.00
58072;BME280;60383;46.626;18.866;2024-01-07T07:57:45;98932.78;;;6.23;100.00
58072;BME280;60383;46.626;18.866;2024-01-07T08:00:12;98933.66;;;6.32;100.00
58072;BME280;60383;46.626;18.866;2024-01-07T08:02:38;98935.00;;;6.19;100.00
58072;BME280;60383;46.626;18.866;2024-01-07T08:05:04;98937.56;;;6.21;100.00
58072;BME280;60383;46.626;18.866;2024-01-07T08:07:29;98939.25;;;6.22;100.00
58072;BME280;60383;46.626;18.866;2024-01-07T08:09:55;98943.88;;;6.30;100.00
58072;BME280;60383;46.626;18.866;2024-01-07T08:12:23;98947.28;;;6.40;100.00
58072;BME280;60383;46.626;18.866;2024-01-07T08:14:48;98952.88;;;6.38;100.00
58072;BME280;60383;46.626;18.866;2024-01-07T08:17:14;98952.38;;;6.35;100.00
58072;BME280;60383;46.626;18.866;2024-01-07T08:19:40;98948.97;;;6.25;100.00
58072;BME280;60383;46.626;18.866;2024-01-07T08:22:06;98956.09;;;6.34;100.00
58072;BME280;60383;46.626;18.866;2024-01-07T08:24:31;98951.00;;;6.31;100.00
58072;BME280;60383;46.626;18.866;2024-01-07T08:26:57;98955.59;;;6.30;100.00
58072;BME280;60383;46.626;18.866;2024-01-07T08:29:22;98953.38;;;6.34;100.00
58072;BME280;60383;46.626;18.866;2024-01-07T08:31:48;98961.53;;;6.34;100.00
58072;BME280;60383;46.626;18.866;2024-01-07T08:34:13;98966.63;;;6.29;100.00
58072;BME280;60383;46.626;18.866;2024-01-07T08:36:40;98976.47;;;6.21;100.00
58072;BME280;60383;46.626;18.866;2024-01-07T08:39:05;98965.13;;;6.43;100.00
58072;BME280;60383;46.626;18.866;2024-01-07T08:41:31;98970.41;;;6.36;100.00
58072;BME280;60383;46.626;18.866;2024-01-07T08:43:56;98972.78;;;6.47;100.00
58072;BME280;60383;46.626;18.866;2024-01-07T08:46:22;98975.72;;;6.54;100.00
58072;BME280;60383;46.626;18.866;2024-01-07T08:48:47;98983.38;;;6.67;100.00
58072;BME280;60383;46.626;18.866;2024-01-07T08:51:13;98974.69;;;6.63;100.00
58072;BME280;60383;46.626;18.866;2024-01-07T08:53:39;98980.13;;;6.55;100.00
58072;BME280;60383;46.626;18.866;2024-01-07T08:56:05;98981.84;;;6.64;100.00
58072;BME280;60383;46.626;18.866;2024-01-07T08:58:32;98973.81;;;6.46;100.00
58072;BME280;60383;46.626;18.866;2024-01-07T09:00:57;98976.75;;;6.61;100.00
58072;BME280;60383;46.626;18.866;2024-01-07T09:03:23;98981.13;;;6.46;100.00
58072;BME280;60383;46.626;18.866;2024-01-07T09:05:48;98987.63;;;6.61;100.00
58072;BME280;60383;46.626;18.866;2024-01-07T09:08:13;98980.28;;;6.53;100.00
58072;BME280;60383;46.626;18.866;2024-01-07T09:10:40;99002.34;;;6.42;100.00
58072;BME280;60383;46.626;18.866;2024-01-07T09:13:05;99002.09;;;6.70;100.00
58072;BME280;60383;46.626;18.866;2024-01-07T09:15:31;99001.59;;;6.83;100.00
58072;BME280;60383;46.626;18.866;2024-01-07T09:17:56;99004.34;;;6.83;100.00
58072;BME280;60383;46.626;18.866;2024-01-07T09:20:22;99013.97;;;6.69;100.00
58072;BME280;60383;46.626;18.866;2024-01-07T09:22:47;99001.38;;;6.68;100.00
58072;BME280;60383;46.626;18.866;2024-01-07T09:25:13;99006.63;;;6.53;100.00
58072;BME280;60383;46.626;18.866;2024-01-07T09:27:39;99005.78;;;6.52;100.00
58072;BME280;60383;46.626;18.866;2024-01-07T09:30:05;99009.72;;;6.66;100.00
58072;BME280;60383;46.626;18.866;2024-01-07T09:32:31;99007.97;;;6.49;100.00
58072;BME280;60383;46.626;18.866;2024-01-07T09:34:56;99010.19;;;6.53;100.00
58072;BME280;60383;46.626;18.866;2024-01-07T09:37:23;99010.78;;;6.22;100.00
58072;BME280;60383;46.626;18.866;2024-01-07T09:39:48;99007.88;;;6.16;100.00
58072;BME280;60383;46.626;18.866;2024-01-07T09:42:16;99008.94;;;6.31;100.00
58072;BME280;60383;46.626;18.866;2024-01-07T09:44:42;99018.00;;;6.48;100.00
58072;BME280;60383;46.626;18.866;2024-01-07T09:47:10;99017.47;;;6.36;100.00
58072;BME280;60383;46.626;18.866;2024-01-07T09:49:37;99020.41;;;6.00;100.00
58072;BME280;60383;46.626;18.866;2024-01-07T09:52:03;99019.84;;;5.97;100.00
58072;BME280;60383;46.626;18.866;2024-01-07T09:54:30;99018.94;;;6.22;100.00
58072;BME280;60383;46.626;18.866;2024-01-07T09:57:01;99025.75;;;6.27;100.00
58072;BME280;60383;46.626;18.866;2024-01-07T09:59:30;99023.13;;;6.08;100.00
58072;BME280;60383;46.626;18.866;2024-01-07T10:01:56;99025.47;;;5.77;100.00
58072;BME280;60383;46.626;18.866;2024-01-07T10:04:26;99022.25;;;5.47;100.00
58072;BME280;60383;46.626;18.866;2024-01-07T10:06:52;99024.41;;;5.70;100.00
58072;BME280;60383;46.626;18.866;2024-01-07T10:09:20;99027.88;;;5.54;100.00
58072;BME280;60383;46.626;18.866;2024-01-07T10:11:47;99022.50;;;5.62;100.00
58072;BME280;60383;46.626;18.866;2024-01-07T10:14:13;99027.88;;;5.54;100.00
58072;BME280;60383;46.626;18.866;2024-01-07T10:16:39;99019.63;;;5.64;100.00
58072;BME280;60383;46.626;18.866;2024-01-07T10:19:04;99022.50;;;5.62;100.00
58072;BME280;60383;46.626;18.866;2024-01-07T10:21:30;99034.97;;;5.47;100.00
58072;BME280;60383;46.626;18.866;2024-01-07T10:26:35;99018.00;;;5.44;100.00
58072;BME280;60383;46.626;18.866;2024-01-07T10:29:01;99036.22;;;5.34;100.00
58072;BME280;60383;46.626;18.866;2024-01-07T10:31:26;99020.22;;;5.05;100.00
58072;BME280;60383;46.626;18.866;2024-01-07T10:33:52;99018.13;;;5.17;100.00
58072;BME280;60383;46.626;18.866;2024-01-07T10:36:18;99018.41;;;5.14;100.00
58072;BME280;60383;46.626;18.866;2024-01-07T10:38:45;99023.63;;;5.07;100.00
58072;BME280;60383;46.626;18.866;2024-01-07T10:41:11;99023.72;;;4.97;100.00
58072;BME280;60383;46.626;18.866;2024-01-07T10:43:38;99020.06;;;5.06;100.00
58072;BME280;60383;46.626;18.866;2024-01-07T10:46:04;99016.13;;;5.01;100.00
58072;BME280;60383;46.626;18.866;2024-01-07T10:48:37;99021.06;;;5.05;100.00
58072;BME280;60383;46.626;18.866;2024-01-07T10:51:04;99017.44;;;4.96;100.00
58072;BME280;60383;46.626;18.866;2024-01-07T10:53:33;99015.72;;;4.95;100.00
58072;BME280;60383;46.626;18.866;2024-01-07T10:56:05;99016.59;;;4.96;100.00
58072;BME280;60383;46.626;18.866;2024-01-07T10:58:33;99010.91;;;4.89;100.00
58072;BME280;60383;46.626;18.866;2024-01-07T11:01:01;99010.59;;;4.56;100.00
58072;BME280;60383;46.626;18.866;2024-01-07T11:04:01;99013.09;;;4.50;100.00
58072;BME280;60383;46.626;18.866;2024-01-07T11:06:42;99016.22;;;4.73;100.00
58072;BME280;60383;46.626;18.866;2024-01-07T11:11:45;99018.66;;;4.66;100.00
58072;BME280;60383;46.626;18.866;2024-01-07T11:14:39;99014.22;;;4.47;100.00
58072;BME280;60383;46.626;18.866;2024-01-07T11:17:06;99018.72;;;4.38;100.00
58072;BME280;60383;46.626;18.866;2024-01-07T11:19:32;99014.66;;;4.52;100.00
58072;BME280;60383;46.626;18.866;2024-01-07T11:22:26;99017.41;;;4.42;100.00
58072;BME280;60383;46.626;18.866;2024-01-07T11:24:59;99013.84;;;4.14;100.00
58072;BME280;60383;46.626;18.866;2024-01-07T11:27:31;99012.09;;;4.23;100.00
58072;BME280;60383;46.626;18.866;2024-01-07T11:30:07;99012.78;;;4.25;100.00
58072;BME280;60383;46.626;18.866;2024-01-07T11:32:34;99020.09;;;4.24;100.00
58072;BME280;60383;46.626;18.866;2024-01-07T11:35:00;99019.94;;;3.98;100.00
58072;BME280;60383;46.626;18.866;2024-01-07T11:37:26;99020.25;;;3.85;100.00
58072;BME280;60383;46.626;18.866;2024-01-07T11:39:56;99022.72;;;3.78;100.00
58072;BME280;60383;46.626;18.866;2024-01-07T11:42:22;99021.41;;;3.82;100.00
58072;BME280;60383;46.626;18.866;2024-01-07T11:44:52;99021.56;;;3.81;100.00
58072;BME280;60383;46.626;18.866;2024-01-07T11:47:19;99015.56;;;3.87;100.00
58072;BME280;60383;46.626;18.866;2024-01-07T11:49:45;99030.53;;;3.81;100.00
58072;BME280;60383;46.626;18.866;2024-01-07T11:52:11;99029.03;;;3.59;100.00
58072;BME280;60383;46.626;18.866;2024-01-07T11:54:38;99033.50;;;3.50;100.00
58072;BME280;60383;46.626;18.866;2024-01-07T11:57:04;99030.78;;;3.50;100.00
58072;BME280;60383;46.626;18.866;2024-01-07T11:59:30;99027.31;;;3.68;100.00
58072;BME280;60383;46.626;18.866;2024-01-07T12:01:55;99030.75;;;3.60;100.00
58072;BME280;60383;46.626;18.866;2024-01-07T12:04:21;99033.19;;;3.54;100.00
58072;BME280;60383;46.626;18.866;2024-01-07T12:06:48;99032.19;;;3.55;100.00
58072;BME280;60383;46.626;18.866;2024-01-07T12:09:14;99038.56;;;3.73;100.00
58072;BME280;60383;46.626;18.866;2024-01-07T12:11:40;99038.88;;;3.60;100.00
58072;BME280;60383;46.626;18.866;2024-01-07T12:14:07;99026.44;;;3.20;100.00
58072;BME280;60383;46.626;18.866;2024-01-07T12:16:34;99036.34;;;3.49;100.00
58072;BME280;60383;46.626;18.866;2024-01-07T12:18:59;99046.50;;;3.27;100.00
58072;BME280;60383;46.626;18.866;2024-01-07T12:21:25;99037.69;;;3.06;100.00
58072;BME280;60383;46.626;18.866;2024-01-07T12:23:52;99036.28;;;2.92;100.00
58072;BME280;60383;46.626;18.866;2024-01-07T12:26:18;99049.34;;;3.35;100.00
58072;BME280;60383;46.626;18.866;2024-01-07T12:28:52;99051.63;;;3.20;100.00
58072;BME280;60383;46.626;18.866;2024-01-07T12:31:19;99041.63;;;3.41;100.00
58072;BME280;60383;46.626;18.866;2024-01-07T12:33:46;99035.53;;;3.29;100.00
58072;BME280;60383;46.626;18.866;2024-01-07T12:36:12;99043.66;;;3.09;100.00
58072;BME280;60383;46.626;18.866;2024-01-07T12:38:37;99047.94;;;3.12;100.00
58072;BME280;60383;46.626;18.866;2024-01-07T12:41:03;99048.22;;;3.18;100.00
58072;BME280;60383;46.626;18.866;2024-01-07T12:43:29;99050.47;;;3.13;100.00
58072;BME280;60383;46.626;18.866;2024-01-07T12:45:54;99058.91;;;3.10;100.00
58072;BME280;60383;46.626;18.866;2024-01-07T12:48:22;99058.91;;;2.91;100.00
58072;BME280;60383;46.626;18.866;2024-01-07T12:50:48;99066.44;;;2.97;100.00